sensor_id;sensor_type;location;lat;lon;timestamp;P1;durP1;ratioP1;P2;durP2;ratioP2
18174;SDS011;9212;50.894;16.714;2023-04-28T00:00:04;9.07;;;5.83;;
18174;SDS011;9212;50.894;16.714;2023-04-28T00:02:33;8.83;;;5.73;;
18174;SDS011;9212;50.894;16.714;2023-04-28T00:05:00;8.70;;;5.90;;
18174;SDS011;9212;50.894;16.714;2023-04-28T00:07:29;10.47;;;5.70;;
18174;SDS011;9212;50.894;16.714;2023-04-28T00:09:55;10.93;;;6.07;;
18174;SDS011;9212;50.894;16.714;2023-04-28T00:12:23;12.97;;;6.93;;
18174;SDS011;9212;50.894;16.714;2023-04-28T00:14:50;13.20;;;6.80;;
18174;SDS011;9212;50.894;16.714;2023-04-28T00:17:17;14.07;;;7.30;;
18174;SDS011;9212;50.894;16.714;2023-04-28T00:19:45;21.23;;;6.60;;
18174;SDS011;9212;50.894;16.714;2023-04-28T00:22:13;15.70;;;8.23;;
18174;SDS011;9212;50.894;16.714;2023-04-28T00:24:42;16.03;;;6.67;;
18174;SDS011;9212;50.894;16.714;2023-04-28T00:27:09;12.40;;;6.03;;
18174;SDS011;9212;50.894;16.714;2023-04-28T00:29:36;17.20;;;6.50;;
18174;SDS011;9212;50.894;16.714;2023-04-28T00:32:04;11.87;;;7.00;;
18174;SDS011;9212;50.894;16.714;2023-04-28T00:34:31;12.03;;;6.10;;
18174;SDS011;9212;50.894;16.714;2023-04-28T00:37:01;11.30;;;6.50;;
18174;SDS011;9212;50.894;16.714;2023-04-28T00:39:29;13.27;;;6.43;;
18174;SDS011;9212;50.894;16.714;2023-04-28T00:41:57;10.53;;;6.10;;
18174;SDS011;9212;50.894;16.714;2023-04-28T00:44:26;9.40;;;5.90;;
18174;SDS011;9212;50.894;16.714;2023-04-28T00:46:53;17.37;;;6.60;;
18174;SDS011;9212;50.894;16.714;2023-04-28T00:49:21;12.20;;;6.67;;
18174;SDS011;9212;50.894;16.714;2023-04-28T00:51:49;12.83;;;6.13;;
18174;SDS011;9212;50.894;16.714;2023-04-28T00:54:16;11.20;;;6.57;;
18174;SDS011;9212;50.894;16.714;2023-04-28T00:56:43;13.63;;;7.00;;
18174;SDS011;9212;50.894;16.714;2023-04-28T00:59:12;15.37;;;7.50;;
18174;SDS011;9212;50.894;16.714;2023-04-28T01:01:39;15.63;;;7.00;;
18174;SDS011;9212;50.894;16.714;2023-04-28T01:04:06;13.30;;;7.33;;
18174;SDS011;9212;50.894;16.714;2023-04-28T01:06:34;17.63;;;7.37;;
18174;SDS011;9212;50.894;16.714;2023-04-28T01:09:01;13.73;;;7.83;;
18174;SDS011;9212;50.894;16.714;2023-04-28T01:11:30;18.70;;;8.60;;
18174;SDS011;9212;50.894;16.714;2023-04-28T01:13:57;14.50;;;7.33;;
18174;SDS011;9212;50.894;16.714;2023-04-28T01:16:26;15.67;;;8.53;;
18174;SDS011;9212;50.894;16.714;2023-04-28T01:18:53;19.53;;;9.60;;
18174;SDS011;9212;50.894;16.714;2023-04-28T01:21:26;18.57;;;9.37;;
18174;SDS011;9212;50.894;16.714;2023-04-28T01:23:56;17.97;;;8.30;;
18174;SDS011;9212;50.894;16.714;2023-04-28T01:26:23;16.30;;;9.40;;
18174;SDS011;9212;50.894;16.714;2023-04-28T01:28:50;15.37;;;9.43;;
18174;SDS011;9212;50.894;16.714;2023-04-28T01:31:17;15.53;;;9.23;;
18174;SDS011;9212;50.894;16.714;2023-04-28T01:33:45;20.00;;;8.67;;
18174;SDS011;9212;50.894;16.714;2023-04-28T01:36:12;17.30;;;8.97;;
18174;SDS011;9212;50.894;16.714;2023-04-28T01:38:40;19.63;;;9.27;;
18174;SDS011;9212;50.894;16.714;2023-04-28T01:41:08;17.73;;;9.47;;
18174;SDS011;9212;50.894;16.714;2023-04-28T01:43:35;20.40;;;9.50;;
18174;SDS011;9212;50.894;16.714;2023-04-28T01:46:03;20.47;;;10.87;;
18174;SDS011;9212;50.894;16.714;2023-04-28T01:48:30;18.40;;;10.43;;
18174;SDS011;9212;50.894;16.714;2023-04-28T01:50:57;27.20;;;12.33;;
18174;SDS011;9212;50.894;16.714;2023-04-28T01:53:25;27.73;;;13.17;;
18174;SDS011;9212;50.894;16.714;2023-04-28T01:55:52;32.43;;;14.73;;
18174;SDS011;9212;50.894;16.714;2023-04-28T01:58:21;28.43;;;13.73;;
18174;SDS011;9212;50.894;16.714;2023-04-28T02:00:48;30.50;;;15.33;;
18174;SDS011;9212;50.894;16.714;2023-04-28T02:03:15;34.50;;;15.47;;
18174;SDS011;9212;50.894;16.714;2023-04-28T02:05:42;39.67;;;17.83;;
18174;SDS011;9212;50.894;16.714;2023-04-28T02:08:10;40.33;;;16.93;;
18174;SDS011;9212;50.894;16.714;2023-04-28T02:10:37;33.73;;;15.40;;
18174;SDS011;9212;50.894;16.714;2023-04-28T02:13:04;37.50;;;17.33;;
18174;SDS011;9212;50.894;16.714;2023-04-28T02:15:33;39.40;;;17.20;;
18174;SDS011;9212;50.894;16.714;2023-04-28T02:18:05;42.07;;;17.43;;
18174;SDS011;9212;50.894;16.714;2023-04-28T02:20:32;37.87;;;17.13;;
18174;SDS011;9212;50.894;16.714;2023-04-28T02:23:00;43.93;;;18.37;;
18174;SDS011;9212;50.894;16.714;2023-04-28T02:25:27;37.93;;;16.53;;
18174;SDS011;9212;50.894;16.714;2023-04-28T02:27:54;36.57;;;17.30;;
18174;SDS011;9212;50.894;16.714;2023-04-28T02:30:23;42.50;;;18.10;;
18174;SDS011;9212;50.894;16.714;2023-04-28T02:32:52;40.43;;;18.87;;
18174;SDS011;9212;50.894;16.714;2023-04-28T02:35:19;40.13;;;17.77;;
18174;SDS011;9212;50.894;16.714;2023-04-28T02:37:46;38.23;;;17.70;;
18174;SDS011;9212;50.894;16.714;2023-04-28T02:40:13;34.07;;;15.00;;
18174;SDS011;9212;50.894;16.714;2023-04-28T02:42:41;30.87;;;15.03;;
18174;SDS011;9212;50.894;16.714;2023-04-28T02:45:08;35.93;;;15.20;;
18174;SDS011;9212;50.894;16.714;2023-04-28T02:47:36;31.13;;;13.93;;
18174;SDS011;9212;50.894;16.714;2023-04-28T02:50:05;34.93;;;14.17;;
18174;SDS011;9212;50.894;16.714;2023-04-28T02:52:33;24.97;;;12.47;;
18174;SDS011;9212;50.894;16.714;2023-04-28T02:55:01;27.67;;;12.83;;
18174;SDS011;9212;50.894;16.714;2023-04-28T02:57:28;29.00;;;13.17;;
18174;SDS011;9212;50.894;16.714;2023-04-28T02:59:56;25.73;;;12.67;;
18174;SDS011;9212;50.894;16.714;2023-04-28T03:02:23;27.00;;;12.53;;
18174;SDS011;9212;50.894;16.714;2023-04-28T03:04:50;29.97;;;13.67;;
18174;SDS011;9212;50.894;16.714;2023-04-28T03:07:19;30.97;;;12.30;;
18174;SDS011;9212;50.894;16.714;2023-04-28T03:09:46;25.07;;;11.67;;
18174;SDS011;9212;50.894;16.714;2023-04-28T03:12:13;26.93;;;11.70;;
18174;SDS011;9212;50.894;16.714;2023-04-28T03:14:41;21.37;;;11.57;;
18174;SDS011;9212;50.894;16.714;2023-04-28T03:17:08;22.27;;;11.33;;
18174;SDS011;9212;50.894;16.714;2023-04-28T03:19:38;25.17;;;11.17;;
18174;SDS011;9212;50.894;16.714;2023-04-28T03:22:05;24.47;;;11.00;;
18174;SDS011;9212;50.894;16.714;2023-04-28T03:24:34;21.50;;;11.63;;
18174;SDS011;9212;50.894;16.714;2023-04-28T03:27:01;19.50;;;10.50;;
18174;SDS011;9212;50.894;16.714;2023-04-28T03:29:29;18.47;;;9.63;;
18174;SDS011;9212;50.894;16.714;2023-04-28T03:31:57;20.73;;;11.00;;
18174;SDS011;9212;50.894;16.714;2023-04-28T03:34:25;24.47;;;11.20;;
18174;SDS011;9212;50.894;16.714;2023-04-28T03:36:52;22.90;;;11.70;;
18174;SDS011;9212;50.894;16.714;2023-04-28T03:39:19;23.60;;;10.80;;
18174;SDS011;9212;50.894;16.714;2023-04-28T03:41:48;22.07;;;10.70;;
18174;SDS011;9212;50.894;16.714;2023-04-28T03:44:15;19.17;;;10.23;;
18174;SDS011;9212;50.894;16.714;2023-04-28T03:46:42;19.37;;;10.60;;
18174;SDS011;9212;50.894;16.714;2023-04-28T03:49:10;21.50;;;10.37;;
18174;SDS011;9212;50.894;16.714;2023-04-28T03:51:37;27.07;;;10.97;;
18174;SDS011;9212;50.894;16.714;2023-04-28T03:54:05;17.83;;;9.67;;
18174;SDS011;9212;50.894;16.714;2023-04-28T03:56:32;23.27;;;10.40;;
18174;SDS011;9212;50.894;16.714;2023-04-28T03:59:01;21.27;;;10.77;;
18174;SDS011;9212;50.894;16.714;2023-04-28T04:01:28;25.63;;;11.03;;
18174;SDS011;9212;50.894;16.714;2023-04-28T04:03:56;17.43;;;9.70;;
18174;SDS011;9212;50.894;16.714;2023-04-28T04:06:23;18.50;;;9.77;;
18174;SDS011;9212;50.894;16.714;2023-04-28T04:08:50;20.60;;;8.20;;
18174;SDS011;9212;50.894;16.714;2023-04-28T04:11:17;14.87;;;8.77;;
18174;SDS011;9212;50.894;16.714;2023-04-28T04:13:45;21.93;;;8.27;;
18174;SDS011;9212;50.894;16.714;2023-04-28T04:16:13;16.00;;;7.87;;
18174;SDS011;9212;50.894;16.714;2023-04-28T04:18:41;13.57;;;8.63;;
18174;SDS011;9212;50.894;16.714;2023-04-28T04:21:08;14.60;;;8.47;;
18174;SDS011;9212;50.894;16.714;2023-04-28T04:23:35;16.23;;;7.47;;
18174;SDS011;9212;50.894;16.714;2023-04-28T04:26:02;13.37;;;7.90;;
18174;SDS011;9212;50.894;16.714;2023-04-28T04:28:30;12.50;;;7.70;;
18174;SDS011;9212;50.894;16.714;2023-04-28T04:30:57;16.40;;;7.87;;
18174;SDS011;9212;50.894;16.714;2023-04-28T04:33:27;12.00;;;6.60;;
18174;SDS011;9212;50.894;16.714;2023-04-28T04:35:54;17.47;;;7.47;;
18174;SDS011;9212;50.894;16.714;2023-04-28T04:38:21;12.63;;;7.63;;
18174;SDS011;9212;50.894;16.714;2023-04-28T04:40:48;13.27;;;6.80;;
18174;SDS011;9212;50.894;16.714;2023-04-28T04:43:15;14.67;;;7.80;;
18174;SDS011;9212;50.894;16.714;2023-04-28T04:45:42;15.90;;;8.60;;
18174;SDS011;9212;50.894;16.714;2023-04-28T04:48:10;17.03;;;8.60;;
18174;SDS011;9212;50.894;16.714;2023-04-28T04:50:39;18.10;;;8.97;;
18174;SDS011;9212;50.894;16.714;2023-04-28T04:53:07;24.20;;;12.90;;
18174;SDS011;9212;50.894;16.714;2023-04-28T04:55:35;26.57;;;13.20;;
18174;SDS011;9212;50.894;16.714;2023-04-28T04:58:02;26.90;;;11.80;;
18174;SDS011;9212;50.894;16.714;2023-04-28T05:00:29;27.77;;;14.43;;
18174;SDS011;9212;50.894;16.714;2023-04-28T05:02:57;28.63;;;14.40;;
18174;SDS011;9212;50.894;16.714;2023-04-28T05:05:25;25.40;;;13.60;;
18174;SDS011;9212;50.894;16.714;2023-04-28T05:07:53;29.23;;;14.83;;
18174;SDS011;9212;50.894;16.714;2023-04-28T05:10:20;27.63;;;13.60;;
18174;SDS011;9212;50.894;16.714;2023-04-28T05:12:48;27.73;;;13.37;;
18174;SDS011;9212;50.894;16.714;2023-04-28T05:15:15;25.93;;;12.10;;
18174;SDS011;9212;50.894;16.714;2023-04-28T05:17:42;26.37;;;13.60;;
18174;SDS011;9212;50.894;16.714;2023-04-28T05:20:10;28.27;;;14.07;;
18174;SDS011;9212;50.894;16.714;2023-04-28T05:22:37;25.57;;;13.47;;
18174;SDS011;9212;50.894;16.714;2023-04-28T05:25:06;29.80;;;13.20;;
18174;SDS011;9212;50.894;16.714;2023-04-28T05:27:34;28.57;;;12.87;;
18174;SDS011;9212;50.894;16.714;2023-04-28T05:30:03;27.20;;;13.77;;
18174;SDS011;9212;50.894;16.714;2023-04-28T05:32:32;28.63;;;13.97;;
18174;SDS011;9212;50.894;16.714;2023-04-28T05:35:00;29.83;;;12.70;;
18174;SDS011;9212;50.894;16.714;2023-04-28T05:37:27;27.60;;;14.77;;
18174;SDS011;9212;50.894;16.714;2023-04-28T05:39:54;29.97;;;13.97;;
18174;SDS011;9212;50.894;16.714;2023-04-28T05:42:23;26.17;;;13.33;;
18174;SDS011;9212;50.894;16.714;2023-04-28T05:44:50;26.17;;;13.93;;
18174;SDS011;9212;50.894;16.714;2023-04-28T05:47:17;26.70;;;13.57;;
18174;SDS011;9212;50.894;16.714;2023-04-28T05:49:44;25.73;;;12.80;;
18174;SDS011;9212;50.894;16.714;2023-04-28T05:52:12;24.67;;;12.50;;
18174;SDS011;9212;50.894;16.714;2023-04-28T05:54:39;23.30;;;12.13;;
18174;SDS011;9212;50.894;16.714;2023-04-28T05:57:06;28.23;;;13.40;;
18174;SDS011;9212;50.894;16.714;2023-04-28T05:59:35;21.10;;;11.13;;
18174;SDS011;9212;50.894;16.714;2023-04-28T06:02:02;25.53;;;13.07;;
18174;SDS011;9212;50.894;16.714;2023-04-28T06:04:29;28.10;;;13.20;;
18174;SDS011;9212;50.894;16.714;2023-04-28T06:06:56;71.57;;;27.40;;
18174;SDS011;9212;50.894;16.714;2023-04-28T06:09:24;48.67;;;18.03;;
18174;SDS011;9212;50.894;16.714;2023-04-28T06:11:51;47.83;;;18.63;;
18174;SDS011;9212;50.894;16.714;2023-04-28T06:14:18;92.13;;;31.53;;
18174;SDS011;9212;50.894;16.714;2023-04-28T06:16:49;113.83;;;34.43;;
18174;SDS011;9212;50.894;16.714;2023-04-28T06:19:16;93.87;;;29.00;;
18174;SDS011;9212;50.894;16.714;2023-04-28T06:21:44;58.97;;;23.10;;
18174;SDS011;9212;50.894;16.714;2023-04-28T06:24:11;37.23;;;14.73;;
18174;SDS011;9212;50.894;16.714;2023-04-28T06:26:38;49.23;;;16.63;;
18174;SDS011;9212;50.894;16.714;2023-04-28T06:29:05;33.73;;;13.90;;
18174;SDS011;9212;50.894;16.714;2023-04-28T06:31:33;30.93;;;12.10;;
18174;SDS011;9212;50.894;16.714;2023-04-28T06:34:01;39.47;;;13.93;;
18174;SDS011;9212;50.894;16.714;2023-04-28T06:36:29;37.67;;;13.80;;
18174;SDS011;9212;50.894;16.714;2023-04-28T06:38:57;31.50;;;12.40;;
18174;SDS011;9212;50.894;16.714;2023-04-28T06:41:24;26.90;;;11.50;;
18174;SDS011;9212;50.894;16.714;2023-04-28T06:43:53;24.53;;;10.73;;
18174;SDS011;9212;50.894;16.714;2023-04-28T06:46:20;26.83;;;10.30;;
18174;SDS011;9212;50.894;16.714;2023-04-28T06:48:48;20.30;;;9.87;;
18174;SDS011;9212;50.894;16.714;2023-04-28T06:51:16;19.30;;;9.25;;
18174;SDS011;9212;50.894;16.714;2023-04-28T06:53:44;36.17;;;13.40;;
18174;SDS011;9212;50.894;16.714;2023-04-28T06:56:12;36.40;;;12.70;;
18174;SDS011;9212;50.894;16.714;2023-04-28T06:58:40;46.53;;;13.35;;
18174;SDS011;9212;50.894;16.714;2023-04-28T07:01:07;42.92;;;12.25;;
18174;SDS011;9212;50.894;16.714;2023-04-28T07:03:34;40.15;;;12.50;;
18174;SDS011;9212;50.894;16.714;2023-04-28T07:06:03;31.08;;;9.55;;
18174;SDS011;9212;50.894;16.714;2023-04-28T07:08:32;44.42;;;11.32;;
18174;SDS011;9212;50.894;16.714;2023-04-28T07:11:00;47.90;;;10.85;;
18174;SDS011;9212;50.894;16.714;2023-04-28T07:13:28;27.55;;;9.00;;
18174;SDS011;9212;50.894;16.714;2023-04-28T07:15:55;31.08;;;9.00;;
18174;SDS011;9212;50.894;16.714;2023-04-28T07:18:23;32.60;;;8.82;;
18174;SDS011;9212;50.894;16.714;2023-04-28T07:20:50;21.70;;;7.85;;
18174;SDS011;9212;50.894;16.714;2023-04-28T07:23:18;7.90;;;4.97;;
18174;SDS011;9212;50.894;16.714;2023-04-28T07:25:46;6.07;;;3.97;;
18174;SDS011;9212;50.894;16.714;2023-04-28T07:28:14;7.32;;;4.25;;
18174;SDS011;9212;50.894;16.714;2023-04-28T07:30:44;4.35;;;3.22;;
18174;SDS011;9212;50.894;16.714;2023-04-28T07:33:11;8.20;;;3.92;;
18174;SDS011;9212;50.894;16.714;2023-04-28T07:35:39;5.63;;;3.67;;
18174;SDS011;9212;50.894;16.714;2023-04-28T07:38:06;7.22;;;3.95;;
18174;SDS011;9212;50.894;16.714;2023-04-28T07:40:33;7.00;;;4.05;;
18174;SDS011;9212;50.894;16.714;2023-04-28T07:43:02;11.38;;;4.93;;
18174;SDS011;9212;50.894;16.714;2023-04-28T07:45:30;5.88;;;4.45;;
18174;SDS011;9212;50.894;16.714;2023-04-28T07:47:57;5.53;;;4.22;;
18174;SDS011;9212;50.894;16.714;2023-04-28T07:50:24;9.27;;;4.53;;
18174;SDS011;9212;50.894;16.714;2023-04-28T07:52:52;6.30;;;3.58;;
18174;SDS011;9212;50.894;16.714;2023-04-28T07:55:19;8.00;;;3.75;;
18174;SDS011;9212;50.894;16.714;2023-04-28T07:57:46;10.02;;;4.78;;
18174;SDS011;9212;50.894;16.714;2023-04-28T08:00:15;9.60;;;4.50;;
18174;SDS011;9212;50.894;16.714;2023-04-28T08:02:43;8.93;;;4.85;;
18174;SDS011;9212;50.894;16.714;2023-04-28T08:05:10;7.18;;;3.97;;
18174;SDS011;9212;50.894;16.714;2023-04-28T08:07:38;15.07;;;4.95;;
18174;SDS011;9212;50.894;16.714;2023-04-28T08:10:05;6.70;;;4.22;;
18174;SDS011;9212;50.894;16.714;2023-04-28T08:12:35;7.68;;;4.30;;
18174;SDS011;9212;50.894;16.714;2023-04-28T08:15:05;6.68;;;4.07;;
18174;SDS011;9212;50.894;16.714;2023-04-28T08:17:34;9.55;;;4.75;;
18174;SDS011;9212;50.894;16.714;2023-04-28T08:20:01;8.70;;;4.78;;
18174;SDS011;9212;50.894;16.714;2023-04-28T08:22:29;8.85;;;4.32;;
18174;SDS011;9212;50.894;16.714;2023-04-28T08:24:56;5.43;;;3.53;;
18174;SDS011;9212;50.894;16.714;2023-04-28T08:27:24;9.75;;;3.80;;
18174;SDS011;9212;50.894;16.714;2023-04-28T08:29:51;5.65;;;4.22;;
18174;SDS011;9212;50.894;16.714;2023-04-28T08:32:18;5.45;;;3.70;;
18174;SDS011;9212;50.894;16.714;2023-04-28T08:34:46;6.65;;;3.33;;
18174;SDS011;9212;50.894;16.714;2023-04-28T08:37:14;7.80;;;3.97;;
18174;SDS011;9212;50.894;16.714;2023-04-28T08:39:41;6.15;;;3.72;;
18174;SDS011;9212;50.894;16.714;2023-04-28T08:42:08;9.63;;;3.47;;
18174;SDS011;9212;50.894;16.714;2023-04-28T08:44:36;4.13;;;3.70;;
18174;SDS011;9212;50.894;16.714;2023-04-28T08:47:04;5.97;;;3.55;;
18174;SDS011;9212;50.894;16.714;2023-04-28T08:49:38;8.38;;;4.22;;
18174;SDS011;9212;50.894;16.714;2023-04-28T08:52:10;8.80;;;4.07;;
18174;SDS011;9212;50.894;16.714;2023-04-28T08:54:38;5.65;;;3.67;;
18174;SDS011;9212;50.894;16.714;2023-04-28T08:57:07;8.55;;;3.67;;
18174;SDS011;9212;50.894;16.714;2023-04-28T08:59:37;6.38;;;3.17;;
18174;SDS011;9212;50.894;16.714;2023-04-28T09:02:05;6.00;;;3.15;;
18174;SDS011;9212;50.894;16.714;2023-04-28T09:04:33;24.77;;;4.03;;
18174;SDS011;9212;50.894;16.714;2023-04-28T09:07:00;9.18;;;3.30;;
18174;SDS011;9212;50.894;16.714;2023-04-28T09:09:29;6.57;;;3.55;;
18174;SDS011;9212;50.894;16.714;2023-04-28T09:11:57;11.25;;;3.47;;
18174;SDS011;9212;50.894;16.714;2023-04-28T09:14:25;8.23;;;3.17;;
18174;SDS011;9212;50.894;16.714;2023-04-28T09:16:53;4.28;;;2.83;;
18174;SDS011;9212;50.894;16.714;2023-04-28T09:19:20;4.72;;;2.95;;
18174;SDS011;9212;50.894;16.714;2023-04-28T09:21:48;8.27;;;3.50;;
18174;SDS011;9212;50.894;16.714;2023-04-28T09:24:27;10.05;;;4.50;;
18174;SDS011;9212;50.894;16.714;2023-04-28T09:26:57;5.60;;;3.20;;
18174;SDS011;9212;50.894;16.714;2023-04-28T09:29:24;11.32;;;3.55;;
18174;SDS011;9212;50.894;16.714;2023-04-28T09:31:51;8.45;;;3.83;;
18174;SDS011;9212;50.894;16.714;2023-04-28T09:34:19;6.97;;;3.67;;
18174;SDS011;9212;50.894;16.714;2023-04-28T09:36:47;6.05;;;3.75;;
18174;SDS011;9212;50.894;16.714;2023-04-28T09:39:14;6.50;;;3.47;;
18174;SDS011;9212;50.894;16.714;2023-04-28T09:41:56;8.90;;;3.20;;
18174;SDS011;9212;50.894;16.714;2023-04-28T09:44:27;3.63;;;2.63;;
18174;SDS011;9212;50.894;16.714;2023-04-28T09:46:54;5.50;;;3.20;;
18174;SDS011;9212;50.894;16.714;2023-04-28T09:49:21;8.68;;;3.03;;
18174;SDS011;9212;50.894;16.714;2023-04-28T09:51:48;10.18;;;4.40;;
18174;SDS011;9212;50.894;16.714;2023-04-28T09:54:16;4.57;;;2.85;;
18174;SDS011;9212;50.894;16.714;2023-04-28T09:56:46;13.82;;;6.88;;
18174;SDS011;9212;50.894;16.714;2023-04-28T09:59:16;7.80;;;3.30;;
18174;SDS011;9212;50.894;16.714;2023-04-28T10:01:43;9.98;;;3.10;;
18174;SDS011;9212;50.894;16.714;2023-04-28T10:04:10;7.32;;;2.83;;
18174;SDS011;9212;50.894;16.714;2023-04-28T10:06:38;8.98;;;2.63;;
18174;SDS011;9212;50.894;16.714;2023-04-28T10:09:05;5.50;;;3.00;;
18174;SDS011;9212;50.894;16.714;2023-04-28T10:11:34;5.10;;;2.88;;
18174;SDS011;9212;50.894;16.714;2023-04-28T10:14:01;6.57;;;3.25;;
18174;SDS011;9212;50.894;16.714;2023-04-28T10:16:30;7.22;;;3.22;;
18174;SDS011;9212;50.894;16.714;2023-04-28T10:18:57;5.22;;;2.90;;
18174;SDS011;9212;50.894;16.714;2023-04-28T10:21:27;4.03;;;3.00;;
18174;SDS011;9212;50.894;16.714;2023-04-28T10:23:59;6.32;;;2.65;;
18174;SDS011;9212;50.894;16.714;2023-04-28T10:29:30;4.93;;;3.20;;
18174;SDS011;9212;50.894;16.714;2023-04-28T10:32:19;4.60;;;2.58;;
18174;SDS011;9212;50.894;16.714;2023-04-28T10:34:47;3.15;;;2.58;;
18174;SDS011;9212;50.894;16.714;2023-04-28T10:37:14;2.63;;;2.05;;
18174;SDS011;9212;50.894;16.714;2023-04-28T10:42:50;12.00;;;3.03;;
18174;SDS011;9212;50.894;16.714;2023-04-28T10:48:20;3.30;;;2.70;;
18174;SDS011;9212;50.894;16.714;2023-04-28T10:54:14;4.88;;;2.92;;
18174;SDS011;9212;50.894;16.714;2023-04-28T10:59:41;6.20;;;2.97;;
18174;SDS011;9212;50.894;16.714;2023-04-28T11:05:12;5.53;;;3.10;;
18174;SDS011;9212;50.894;16.714;2023-04-28T11:07:40;5.55;;;3.00;;
18174;SDS011;9212;50.894;16.714;2023-04-28T11:13:30;6.13;;;2.90;;
18174;SDS011;9212;50.894;16.714;2023-04-28T11:16:01;5.07;;;2.72;;
18174;SDS011;9212;50.894;16.714;2023-04-28T11:18:29;2.92;;;2.47;;
18174;SDS011;9212;50.894;16.714;2023-04-28T11:21:05;3.47;;;2.45;;
18174;SDS011;9212;50.894;16.714;2023-04-28T11:23:32;4.70;;;2.80;;
18174;SDS011;9212;50.894;16.714;2023-04-28T11:25:59;4.70;;;2.40;;
18174;SDS011;9212;50.894;16.714;2023-04-28T11:28:26;4.13;;;2.33;;
18174;SDS011;9212;50.894;16.714;2023-04-28T11:31:07;3.33;;;1.95;;
18174;SDS011;9212;50.894;16.714;2023-04-28T11:33:36;8.60;;;2.55;;
18174;SDS011;9212;50.894;16.714;2023-04-28T11:36:06;5.53;;;2.60;;
18174;SDS011;9212;50.894;16.714;2023-04-28T11:38:41;4.78;;;2.25;;
18174;SDS011;9212;50.894;16.714;2023-04-28T11:41:09;5.10;;;2.40;;
18174;SDS011;9212;50.894;16.714;2023-04-28T11:43:37;3.63;;;2.10;;
18174;SDS011;9212;50.894;16.714;2023-04-28T11:46:05;6.93;;;2.80;;
18174;SDS011;9212;50.894;16.714;2023-04-28T11:48:33;9.10;;;2.83;;
18174;SDS011;9212;50.894;16.714;2023-04-28T11:51:00;9.65;;;2.40;;
18174;SDS011;9212;50.894;16.714;2023-04-28T11:53:40;4.97;;;2.22;;
18174;SDS011;9212;50.894;16.714;2023-04-28T11:56:08;5.75;;;2.67;;
18174;SDS011;9212;50.894;16.714;2023-04-28T11:58:36;4.80;;;2.10;;
18174;SDS011;9212;50.894;16.714;2023-04-28T12:01:06;6.50;;;2.28;;
18174;SDS011;9212;50.894;16.714;2023-04-28T12:03:41;4.70;;;2.10;;
18174;SDS011;9212;50.894;16.714;2023-04-28T12:06:08;4.10;;;2.40;;
18174;SDS011;9212;50.894;16.714;2023-04-28T12:08:35;3.67;;;2.30;;
18174;SDS011;9212;50.894;16.714;2023-04-28T12:11:07;8.65;;;3.33;;
18174;SDS011;9212;50.894;16.714;2023-04-28T12:13:37;6.28;;;3.60;;
18174;SDS011;9212;50.894;16.714;2023-04-28T12:16:05;2.83;;;2.60;;
18174;SDS011;9212;50.894;16.714;2023-04-28T12:18:33;5.63;;;2.70;;
18174;SDS011;9212;50.894;16.714;2023-04-28T12:21:01;5.20;;;2.60;;
18174;SDS011;9212;50.894;16.714;2023-04-28T12:23:29;4.47;;;2.83;;
18174;SDS011;9212;50.894;16.714;2023-04-28T12:25:57;4.88;;;2.42;;
18174;SDS011;9212;50.894;16.714;2023-04-28T12:28:36;4.18;;;2.40;;
18174;SDS011;9212;50.894;16.714;2023-04-28T12:31:05;6.70;;;2.03;;
18174;SDS011;9212;50.894;16.714;2023-04-28T12:33:34;4.13;;;2.42;;
18174;SDS011;9212;50.894;16.714;2023-04-28T12:36:03;4.22;;;2.17;;
18174;SDS011;9212;50.894;16.714;2023-04-28T12:38:31;4.03;;;2.55;;
18174;SDS011;9212;50.894;16.714;2023-04-28T12:40:58;3.92;;;2.10;;
18174;SDS011;9212;50.894;16.714;2023-04-28T12:43:25;3.78;;;2.25;;
18174;SDS011;9212;50.894;16.714;2023-04-28T12:45:55;8.10;;;2.00;;
18174;SDS011;9212;50.894;16.714;2023-04-28T12:48:21;4.82;;;2.20;;
18174;SDS011;9212;50.894;16.714;2023-04-28T12:50:49;6.25;;;2.33;;
18174;SDS011;9212;50.894;16.714;2023-04-28T12:53:16;2.65;;;1.80;;
18174;SDS011;9212;50.894;16.714;2023-04-28T12:55:43;5.00;;;2.33;;
18174;SDS011;9212;50.894;16.714;2023-04-28T12:58:10;5.63;;;2.33;;
18174;SDS011;9212;50.894;16.714;2023-04-28T13:00:37;3.92;;;2.20;;
18174;SDS011;9212;50.894;16.714;2023-04-28T13:03:07;4.95;;;2.22;;
18174;SDS011;9212;50.894;16.714;2023-04-28T13:05:34;5.50;;;2.60;;
18174;SDS011;9212;50.894;16.714;2023-04-28T13:08:01;4.75;;;2.58;;
18174;SDS011;9212;50.894;16.714;2023-04-28T13:10:28;6.20;;;2.00;;
18174;SDS011;9212;50.894;16.714;2023-04-28T13:12:56;4.82;;;2.50;;
18174;SDS011;9212;50.894;16.714;2023-04-28T13:15:23;5.78;;;2.30;;
18174;SDS011;9212;50.894;16.714;2023-04-28T13:17:50;3.58;;;2.10;;
18174;SDS011;9212;50.894;16.714;2023-04-28T13:20:19;5.03;;;2.78;;
18174;SDS011;9212;50.894;16.714;2023-04-28T13:22:46;3.88;;;2.40;;
18174;SDS011;9212;50.894;16.714;2023-04-28T13:25:13;2.30;;;2.10;;
18174;SDS011;9212;50.894;16.714;2023-04-28T13:27:40;3.80;;;1.95;;
18174;SDS011;9212;50.894;16.714;2023-04-28T13:30:07;5.05;;;2.10;;
18174;SDS011;9212;50.894;16.714;2023-04-28T13:32:35;2.92;;;2.20;;
18174;SDS011;9212;50.894;16.714;2023-04-28T13:35:03;3.08;;;2.10;;
18174;SDS011;9212;50.894;16.714;2023-04-28T13:37:32;7.65;;;2.50;;
18174;SDS011;9212;50.894;16.714;2023-04-28T13:40:00;4.53;;;2.10;;
18174;SDS011;9212;50.894;16.714;2023-04-28T13:42:28;3.40;;;2.22;;
18174;SDS011;9212;50.894;16.714;2023-04-28T13:44:55;3.33;;;2.50;;
18174;SDS011;9212;50.894;16.714;2023-04-28T13:47:22;2.78;;;2.10;;
18174;SDS011;9212;50.894;16.714;2023-04-28T13:49:50;4.28;;;2.17;;
18174;SDS011;9212;50.894;16.714;2023-04-28T13:52:17;3.20;;;2.47;;
18174;SDS011;9212;50.894;16.714;2023-04-28T13:54:47;3.05;;;2.67;;
18174;SDS011;9212;50.894;16.714;2023-04-28T13:57:14;4.22;;;2.58;;
18174;SDS011;9212;50.894;16.714;2023-04-28T13:59:41;5.32;;;2.30;;
18174;SDS011;9212;50.894;16.714;2023-04-28T14:02:09;7.38;;;2.72;;
18174;SDS011;9212;50.894;16.714;2023-04-28T14:04:36;2.97;;;2.10;;
18174;SDS011;9212;50.894;16.714;2023-04-28T14:07:04;4.55;;;2.85;;
18174;SDS011;9212;50.894;16.714;2023-04-28T14:09:31;3.30;;;2.53;;
18174;SDS011;9212;50.894;16.714;2023-04-28T14:12:00;4.25;;;2.53;;
18174;SDS011;9212;50.894;16.714;2023-04-28T14:14:27;2.80;;;2.40;;
18174;SDS011;9212;50.894;16.714;2023-04-28T14:16:54;3.85;;;2.17;;
18174;SDS011;9212;50.894;16.714;2023-04-28T14:19:21;5.70;;;2.60;;
18174;SDS011;9212;50.894;16.714;2023-04-28T14:21:51;3.40;;;2.53;;
18174;SDS011;9212;50.894;16.714;2023-04-28T14:24:18;3.53;;;2.55;;
18174;SDS011;9212;50.894;16.714;2023-04-28T14:26:45;4.15;;;2.80;;
18174;SDS011;9212;50.894;16.714;2023-04-28T14:29:15;5.72;;;2.88;;
18174;SDS011;9212;50.894;16.714;2023-04-28T14:31:42;5.70;;;3.00;;
18174;SDS011;9212;50.894;16.714;2023-04-28T14:34:09;4.50;;;2.78;;
18174;SDS011;9212;50.894;16.714;2023-04-28T14:36:36;4.40;;;2.85;;
18174;SDS011;9212;50.894;16.714;2023-04-28T14:39:05;5.32;;;3.30;;
18174;SDS011;9212;50.894;16.714;2023-04-28T14:41:33;6.82;;;3.22;;
18174;SDS011;9212;50.894;16.714;2023-04-28T14:44:00;5.53;;;3.13;;
18174;SDS011;9212;50.894;16.714;2023-04-28T14:46:28;8.40;;;2.80;;
18174;SDS011;9212;50.894;16.714;2023-04-28T14:48:55;7.03;;;3.72;;
18174;SDS011;9212;50.894;16.714;2023-04-28T14:51:22;5.43;;;3.42;;
18174;SDS011;9212;50.894;16.714;2023-04-28T14:53:50;5.40;;;3.30;;
18174;SDS011;9212;50.894;16.714;2023-04-28T14:56:17;6.07;;;3.38;;
18174;SDS011;9212;50.894;16.714;2023-04-28T14:58:44;4.93;;;3.30;;
18174;SDS011;9212;50.894;16.714;2023-04-28T15:01:11;4.32;;;2.88;;